createdAt,value
2017-09-29T00:01:28.973Z,99.90
2017-09-29T00:04:01.317Z,99.90
2017-09-29T00:06:33.577Z,99.90
2017-09-29T00:09:05.789Z,99.90
2017-09-29T00:11:45.070Z,99.90
2017-09-29T00:14:17.206Z,99.90
2017-09-29T00:16:49.581Z,99.90
2017-09-29T00:19:21.870Z,99.90
2017-09-29T00:21:54.289Z,99.90
2017-09-29T00:24:26.501Z,99.90
2017-09-29T00:26:58.704Z,99.90
2017-09-29T00:29:30.992Z,99.90
2017-09-29T00:32:03.378Z,99.90
2017-09-29T00:34:35.589Z,99.90
2017-09-29T00:37:07.969Z,99.90
2017-09-29T00:39:40.396Z,99.90
2017-09-29T00:42:12.605Z,99.90
2017-09-29T00:44:45.002Z,99.90
2017-09-29T00:47:17.284Z,99.90
2017-09-29T00:49:50.401Z,99.90
2017-09-29T00:52:22.950Z,99.90
2017-09-29T00:54:55.374Z,99.90
2017-09-29T00:57:27.639Z,99.90
2017-09-29T00:59:59.913Z,99.90
2017-09-29T01:02:32.232Z,99.90
2017-09-29T01:05:04.619Z,99.90
2017-09-29T01:07:37.153Z,99.90
2017-09-29T01:10:10.145Z,99.90
2017-09-29T01:12:42.369Z,99.90
2017-09-29T01:15:14.732Z,99.90
2017-09-29T01:17:47.112Z,99.90
2017-09-29T01:20:19.316Z,99.90
2017-09-29T01:22:51.649Z,99.90
2017-09-29T01:25:23.985Z,99.90
2017-09-29T01:27:56.290Z,99.90
2017-09-29T01:30:28.470Z,99.90
2017-09-29T01:33:00.669Z,99.90
2017-09-29T01:35:32.790Z,99.90
2017-09-29T01:38:05.132Z,99.90
2017-09-29T01:40:37.810Z,99.90
2017-09-29T01:43:10.004Z,99.90
2017-09-29T01:45:42.165Z,99.90
2017-09-29T01:48:14.458Z,99.90
2017-09-29T01:50:46.873Z,99.90
2017-09-29T01:53:19.329Z,99.90
2017-09-29T01:55:51.664Z,99.90
2017-09-29T01:58:23.841Z,99.90
2017-09-29T02:00:56.218Z,99.90
2017-09-29T02:03:28.456Z,99.90
2017-09-29T02:06:00.807Z,99.90
2017-09-29T02:08:33.125Z,99.90
2017-09-29T02:11:05.527Z,99.90
2017-09-29T02:13:38.005Z,99.90
2017-09-29T02:16:10.393Z,99.90
2017-09-29T02:18:42.749Z,99.90
2017-09-29T02:21:14.880Z,99.90
2017-09-29T02:23:47.149Z,99.90
2017-09-29T02:26:19.310Z,99.90
2017-09-29T02:28:51.701Z,99.90
2017-09-29T02:31:24.097Z,99.90
2017-09-29T02:33:56.386Z,99.90
2017-09-29T02:36:29.411Z,99.90
2017-09-29T02:39:01.641Z,99.90
2017-09-29T02:41:34.043Z,99.90
2017-09-29T02:44:06.417Z,99.90
2017-09-29T02:46:38.641Z,99.90
2017-09-29T02:49:11.073Z,99.90
2017-09-29T02:51:44.163Z,99.90
2017-09-29T02:54:16.418Z,99.90
2017-09-29T02:56:59.464Z,99.90
2017-09-29T02:59:35.504Z,99.90
2017-09-29T03:02:12.432Z,99.90
2017-09-29T03:04:48.005Z,99.90
2017-09-29T03:07:20.413Z,99.90
2017-09-29T03:09:52.773Z,99.90
2017-09-29T03:12:25.853Z,99.90
2017-09-29T03:14:58.452Z,99.90
2017-09-29T03:17:30.622Z,99.90
2017-09-29T03:20:02.971Z,99.90
2017-09-29T03:22:35.409Z,99.90
2017-09-29T03:25:07.770Z,99.90
2017-09-29T03:27:40.055Z,99.90
2017-09-29T03:30:12.247Z,99.90
2017-09-29T03:32:44.431Z,99.90
2017-09-29T03:35:16.912Z,99.90
2017-09-29T03:37:49.205Z,99.90
2017-09-29T03:40:21.372Z,99.90
2017-09-29T03:42:54.302Z,99.90
2017-09-29T03:45:26.601Z,99.90
2017-09-29T03:47:58.953Z,99.90
2017-09-29T03:50:33.529Z,99.90
2017-09-29T03:53:06.509Z,99.90
2017-09-29T03:55:41.793Z,99.90
2017-09-29T03:58:15.285Z,99.90
2017-09-29T04:00:48.502Z,99.90
2017-09-29T04:03:20.985Z,99.90
2017-09-29T04:05:53.330Z,99.90
2017-09-29T04:08:25.741Z,99.90
2017-09-29T04:10:58.077Z,99.90
2017-09-29T04:13:30.386Z,99.90
2017-09-29T04:16:02.809Z,99.90
2017-09-29T04:18:35.221Z,99.90
2017-09-29T04:21:07.449Z,99.90
2017-09-29T04:23:39.868Z,99.90
2017-09-29T04:26:12.207Z,99.90
2017-09-29T04:28:45.374Z,99.90
2017-09-29T04:31:17.517Z,99.90
2017-09-29T04:33:49.876Z,99.90
2017-09-29T04:36:22.048Z,99.90
2017-09-29T04:38:55.153Z,99.90
2017-09-29T04:41:28.378Z,99.90
2017-09-29T04:44:01.377Z,99.90
2017-09-29T04:46:33.589Z,99.90
2017-09-29T04:49:05.690Z,99.90
2017-09-29T04:51:38.007Z,99.90
2017-09-29T04:54:10.326Z,99.90
2017-09-29T04:56:42.606Z,99.90
2017-09-29T04:59:14.942Z,99.90
2017-09-29T05:01:47.149Z,99.90
2017-09-29T05:04:19.558Z,99.90
2017-09-29T05:06:52.624Z,99.90
2017-09-29T05:09:24.846Z,99.90
2017-09-29T05:11:57.261Z,99.90
2017-09-29T05:14:29.438Z,99.90
2017-09-29T05:17:01.893Z,99.90
2017-09-29T05:19:35.038Z,99.90
2017-09-29T05:22:07.310Z,99.90
2017-09-29T05:24:39.618Z,99.90
2017-09-29T05:27:12.071Z,99.90
2017-09-29T05:29:44.282Z,99.90
2017-09-29T05:32:16.764Z,99.90
2017-09-29T05:34:49.140Z,99.90
2017-09-29T05:37:21.591Z,99.90
2017-09-29T05:39:53.998Z,99.90
2017-09-29T05:42:26.374Z,99.90
2017-09-29T05:44:58.525Z,99.90
2017-09-29T05:47:30.703Z,99.90
2017-09-29T05:50:03.021Z,99.90
2017-09-29T05:52:35.508Z,99.90
2017-09-29T05:55:07.695Z,99.90
2017-09-29T05:57:39.880Z,99.90
2017-09-29T06:00:12.093Z,99.90
2017-09-29T06:02:44.282Z,99.90
2017-09-29T06:05:16.540Z,99.90
2017-09-29T06:07:48.912Z,99.90
2017-09-29T06:10:21.148Z,99.90
2017-09-29T06:12:53.302Z,99.90
2017-09-29T06:15:25.720Z,99.90
2017-09-29T06:17:57.893Z,99.90
2017-09-29T06:20:30.281Z,99.90
2017-09-29T06:23:02.549Z,99.90
2017-09-29T06:25:34.889Z,99.90
2017-09-29T06:28:07.268Z,99.90
2017-09-29T06:30:39.754Z,99.90
2017-09-29T06:33:12.185Z,99.90
2017-09-29T06:35:44.445Z,99.90
2017-09-29T06:38:16.643Z,99.90
2017-09-29T06:40:48.941Z,99.90
2017-09-29T06:43:21.318Z,99.90
2017-09-29T06:45:54.890Z,99.90
2017-09-29T06:48:27.451Z,99.90
2017-09-29T06:51:00.278Z,99.90
2017-09-29T06:53:32.808Z,99.90
2017-09-29T06:56:05.794Z,99.90
2017-09-29T06:58:38.827Z,99.90
2017-09-29T07:01:11.200Z,99.90
2017-09-29T07:03:43.522Z,97.90
2017-09-29T07:06:15.901Z,92.50
2017-09-29T07:08:49.237Z,83.20
2017-09-29T07:11:21.389Z,83.30
2017-09-29T07:13:53.775Z,80.30
2017-09-29T07:16:26.189Z,74.80
2017-09-29T07:18:58.560Z,73.70
2017-09-29T07:21:30.961Z,73.50
2017-09-29T07:24:03.437Z,70.00
2017-09-29T07:26:36.262Z,67.80
2017-09-29T07:29:09.265Z,69.80
2017-09-29T07:31:42.364Z,67.20
2017-09-29T07:34:14.602Z,62.90
2017-09-29T07:36:47.084Z,65.40
2017-09-29T07:39:19.276Z,63.50
2017-09-29T07:41:51.641Z,63.20
2017-09-29T07:44:24.723Z,61.20
2017-09-29T07:46:57.003Z,61.10
2017-09-29T07:49:29.210Z,60.70
2017-09-29T07:52:01.353Z,62.90
2017-09-29T07:54:33.621Z,63.60
2017-09-29T07:57:05.931Z,62.20
2017-09-29T07:59:38.180Z,59.70
2017-09-29T08:02:11.290Z,59.30
2017-09-29T08:04:43.577Z,59.30
2017-09-29T08:07:15.740Z,59.20
2017-09-29T08:09:48.946Z,57.40
2017-09-29T08:12:21.314Z,57.40
2017-09-29T08:14:53.541Z,57.90
2017-09-29T08:17:25.670Z,60.90
2017-09-29T08:19:58.053Z,58.10
2017-09-29T08:22:31.063Z,54.20
2017-09-29T08:25:03.413Z,54.10
2017-09-29T08:27:35.769Z,53.50
2017-09-29T08:30:08.289Z,54.30
2017-09-29T08:32:40.729Z,56.20
2017-09-29T08:35:13.077Z,57.80
2017-09-29T08:37:45.570Z,58.40
2017-09-29T08:40:18.673Z,55.50
2017-09-29T08:42:50.963Z,55.40
2017-09-29T08:45:23.149Z,52.80
2017-09-29T08:47:56.612Z,57.00
2017-09-29T08:50:28.922Z,57.00
2017-09-29T08:53:01.446Z,56.10
2017-09-29T08:55:34.142Z,57.00
2017-09-29T08:58:06.409Z,56.60
2017-09-29T09:00:38.897Z,54.80
2017-09-29T09:03:11.305Z,52.60
2017-09-29T09:05:43.828Z,50.50
2017-09-29T09:08:16.360Z,51.90
2017-09-29T09:10:48.928Z,51.60
2017-09-29T09:13:21.431Z,50.60
2017-09-29T09:15:54.040Z,50.40
2017-09-29T09:18:27.309Z,47.30
2017-09-29T09:20:59.578Z,47.20
2017-09-29T09:23:32.127Z,47.50
2017-09-29T09:26:05.346Z,47.30
2017-09-29T09:28:37.897Z,47.30
2017-09-29T09:31:10.440Z,48.30
2017-09-29T09:33:42.851Z,47.20
2017-09-29T09:36:15.440Z,46.90
2017-09-29T09:38:48.078Z,46.70
2017-09-29T09:41:20.924Z,48.30
2017-09-29T09:43:53.399Z,45.80
2017-09-29T09:46:25.883Z,46.80
2017-09-29T09:48:58.547Z,47.20
2017-09-29T09:51:31.033Z,46.40
2017-09-29T09:54:04.199Z,44.00
2017-09-29T09:56:36.730Z,44.00
2017-09-29T09:59:09.166Z,48.30
2017-09-29T10:01:42.671Z,46.30
2017-09-29T10:04:15.044Z,44.50
2017-09-29T10:06:47.463Z,44.40
2017-09-29T10:09:20.819Z,44.40
2017-09-29T10:11:53.316Z,44.40
2017-09-29T10:14:25.880Z,45.20
2017-09-29T10:16:58.286Z,41.80
2017-09-29T10:19:30.642Z,43.10
2017-09-29T10:22:03.946Z,41.40
2017-09-29T10:24:37.092Z,43.40
2017-09-29T10:27:09.474Z,43.30
2017-09-29T10:29:41.952Z,45.30
2017-09-29T10:32:15.266Z,43.80
2017-09-29T10:34:47.705Z,43.80
2017-09-29T10:37:20.528Z,41.90
2017-09-29T10:39:53.652Z,45.60
2017-09-29T10:42:26.219Z,45.40
2017-09-29T10:44:58.716Z,43.10
2017-09-29T10:47:31.165Z,43.20
2017-09-29T10:50:03.477Z,44.00
2017-09-29T10:52:35.980Z,45.30
2017-09-29T10:55:09.332Z,45.60
2017-09-29T10:57:41.938Z,45.50
2017-09-29T11:00:14.592Z,48.20
2017-09-29T11:02:47.393Z,45.50
2017-09-29T11:05:20.206Z,45.50
2017-09-29T11:07:53.509Z,44.30
2017-09-29T11:10:26.767Z,42.00
2017-09-29T11:12:59.424Z,42.70
2017-09-29T11:15:32.897Z,43.80
2017-09-29T11:18:06.278Z,43.10
2017-09-29T11:20:38.948Z,43.10
2017-09-29T11:23:11.979Z,43.40
2017-09-29T11:25:44.367Z,41.20
2017-09-29T11:28:16.548Z,41.30
2017-09-29T11:30:48.790Z,42.40
2017-09-29T11:33:21.070Z,42.70
2017-09-29T11:35:53.461Z,42.10
2017-09-29T11:38:25.680Z,44.70
2017-09-29T11:40:58.543Z,41.30
2017-09-29T11:43:30.779Z,41.30
2017-09-29T11:46:03.183Z,40.70
2017-09-29T11:48:35.547Z,40.40
2017-09-29T11:51:07.953Z,43.10
2017-09-29T11:53:40.266Z,43.90
2017-09-29T11:56:12.611Z,44.70
2017-09-29T11:58:44.910Z,44.70
2017-09-29T12:01:17.305Z,44.90
2017-09-29T12:03:49.550Z,45.20
2017-09-29T12:06:22.783Z,44.70
2017-09-29T12:08:55.765Z,45.30
2017-09-29T12:11:28.357Z,45.10
2017-09-29T12:14:00.842Z,46.00
2017-09-29T12:16:33.136Z,44.80
2017-09-29T12:19:05.396Z,45.50
2017-09-29T12:21:37.733Z,46.00
2017-09-29T12:24:10.379Z,45.80
2017-09-29T12:26:42.837Z,44.40
2017-09-29T12:29:15.210Z,45.40
2017-09-29T12:31:47.581Z,45.00
2017-09-29T12:34:19.904Z,45.00
2017-09-29T12:36:52.161Z,45.30
2017-09-29T12:39:24.522Z,45.80
2017-09-29T12:41:56.911Z,46.30
2017-09-29T12:44:29.323Z,46.20
2017-09-29T12:47:01.705Z,45.80
2017-09-29T12:49:34.091Z,46.40
2017-09-29T12:52:06.726Z,46.90
2017-09-29T12:54:39.911Z,45.00
2017-09-29T12:57:13.305Z,44.60
2017-09-29T12:59:45.870Z,44.60
2017-09-29T13:02:18.183Z,45.50
2017-09-29T13:04:50.473Z,47.10
2017-09-29T13:07:22.947Z,44.50
2017-09-29T13:09:55.882Z,42.40
2017-09-29T13:12:28.955Z,43.70
2017-09-29T13:15:01.233Z,43.10
2017-09-29T13:17:33.573Z,43.30
2017-09-29T13:20:05.929Z,41.40
2017-09-29T13:22:39.147Z,42.60
2017-09-29T13:25:11.731Z,42.60
2017-09-29T13:27:44.185Z,45.40
2017-09-29T13:30:17.319Z,42.80
2017-09-29T13:32:49.476Z,42.70
2017-09-29T13:35:21.846Z,43.30
2017-09-29T13:37:55.057Z,43.40
2017-09-29T13:40:29.341Z,43.50
2017-09-29T13:43:03.298Z,45.50
2017-09-29T13:45:36.576Z,46.50
2017-09-29T13:48:08.789Z,46.50
2017-09-29T13:50:41.136Z,48.50
2017-09-29T13:53:13.545Z,47.70
2017-09-29T13:55:45.911Z,46.00
2017-09-29T13:58:18.968Z,46.00
2017-09-29T14:00:51.340Z,45.80
2017-09-29T14:03:23.769Z,46.10
2017-09-29T14:05:57.036Z,45.00
2017-09-29T14:08:29.436Z,45.10
2017-09-29T14:11:01.715Z,44.60
2017-09-29T14:13:34.042Z,45.00
2017-09-29T14:16:06.450Z,44.50
2017-09-29T14:18:38.789Z,46.00
2017-09-29T14:21:11.209Z,45.70
2017-09-29T14:23:43.851Z,46.70
2017-09-29T14:26:16.238Z,46.80
2017-09-29T14:28:48.378Z,47.50
2017-09-29T14:31:20.874Z,48.40
2017-09-29T14:33:53.292Z,48.90
2017-09-29T14:36:26.420Z,49.70
2017-09-29T14:38:58.684Z,49.50
2017-09-29T14:41:31.116Z,50.70
2017-09-29T14:44:03.674Z,51.70
2017-09-29T14:46:36.130Z,52.00
2017-09-29T14:49:08.494Z,52.10
2017-09-29T14:51:40.726Z,52.60
2017-09-29T14:54:13.178Z,53.20
2017-09-29T14:56:45.769Z,53.30
2017-09-29T14:59:18.014Z,53.60
2017-09-29T15:01:50.341Z,53.60
2017-09-29T15:04:22.648Z,54.00
2017-09-29T15:06:55.029Z,53.90
2017-09-29T15:09:27.580Z,54.50
2017-09-29T15:11:59.760Z,54.70
2017-09-29T15:14:32.096Z,54.70
2017-09-29T15:17:04.420Z,55.40
2017-09-29T15:19:36.744Z,55.70
2017-09-29T15:22:09.049Z,56.80
2017-09-29T15:24:54.407Z,57.60
2017-09-29T15:27:27.132Z,58.10
2017-09-29T15:29:59.547Z,58.70
2017-09-29T15:32:31.977Z,59.40
2017-09-29T15:35:04.384Z,59.80
2017-09-29T15:37:36.701Z,60.50
2017-09-29T15:40:09.183Z,60.60
2017-09-29T15:42:41.665Z,61.10
2017-09-29T15:45:13.930Z,62.80
2017-09-29T15:47:47.201Z,63.10
2017-09-29T15:50:19.558Z,63.00
2017-09-29T15:52:52.106Z,63.60
2017-09-29T15:55:24.427Z,64.10
2017-09-29T15:57:57.474Z,64.40
2017-09-29T16:00:29.754Z,65.00
2017-09-29T16:03:02.949Z,65.60
2017-09-29T16:05:35.241Z,65.60
2017-09-29T16:08:07.613Z,65.60
2017-09-29T16:10:40.786Z,66.40
2017-09-29T16:13:12.994Z,66.40
2017-09-29T16:15:46.086Z,67.00
2017-09-29T16:18:18.913Z,67.00
2017-09-29T16:20:51.325Z,66.70
2017-09-29T16:23:23.596Z,67.00
2017-09-29T16:25:56.039Z,67.30
2017-09-29T16:28:28.461Z,67.50
2017-09-29T16:31:01.525Z,67.80
2017-09-29T16:33:33.844Z,67.80
2017-09-29T16:36:06.254Z,68.60
2017-09-29T16:38:38.637Z,68.70
2017-09-29T16:41:11.168Z,69.70
2017-09-29T16:43:44.056Z,69.70
2017-09-29T16:46:16.683Z,70.00
2017-09-29T16:48:48.940Z,70.50
2017-09-29T16:51:21.917Z,71.30
2017-09-29T16:53:54.309Z,71.30
2017-09-29T16:56:26.630Z,71.80
2017-09-29T16:58:58.921Z,72.50
2017-09-29T17:01:31.997Z,73.60
2017-09-29T17:04:04.483Z,73.60
2017-09-29T17:06:36.740Z,74.40
2017-09-29T17:09:09.255Z,74.80
2017-09-29T17:11:41.610Z,75.60
2017-09-29T17:14:13.997Z,77.00
2017-09-29T17:16:46.247Z,78.30
2017-09-29T17:19:18.457Z,79.50
2017-09-29T17:21:51.426Z,80.70
2017-09-29T17:24:23.745Z,80.70
2017-09-29T17:26:56.050Z,82.20
2017-09-29T17:29:28.333Z,81.50
2017-09-29T17:32:00.689Z,82.30
2017-09-29T17:34:33.075Z,83.30
2017-09-29T17:37:05.492Z,84.00
2017-09-29T17:39:39.166Z,84.50
2017-09-29T17:42:11.588Z,84.30
2017-09-29T17:44:44.046Z,84.20
2017-09-29T17:47:16.507Z,84.60
2017-09-29T17:49:48.849Z,84.00
2017-09-29T17:52:21.214Z,83.80
2017-09-29T17:54:54.501Z,84.50
2017-09-29T17:57:27.568Z,84.60
2017-09-29T18:00:00.765Z,84.90
2017-09-29T18:02:33.124Z,84.80
2017-09-29T18:05:06.051Z,84.20
2017-09-29T18:07:38.231Z,84.20
2017-09-29T18:10:10.367Z,84.60
2017-09-29T18:12:42.629Z,83.70
2017-09-29T18:15:14.957Z,82.90
2017-09-29T18:17:47.357Z,83.10
2017-09-29T18:20:19.698Z,82.70
2017-09-29T18:22:52.219Z,81.40
2017-09-29T18:25:24.552Z,82.00
2017-09-29T18:27:56.851Z,81.70
2017-09-29T18:30:29.774Z,80.50
2017-09-29T18:33:02.156Z,80.40
2017-09-29T18:35:34.490Z,79.40
2017-09-29T18:38:06.701Z,79.60
2017-09-29T18:40:41.053Z,80.10
2017-09-29T18:43:14.334Z,79.20
2017-09-29T18:45:47.766Z,79.50
2017-09-29T18:48:20.187Z,79.30
2017-09-29T18:50:55.362Z,78.70
2017-09-29T18:53:27.826Z,78.30
2017-09-29T18:56:00.395Z,78.50
2017-09-29T18:58:32.834Z,77.80
2017-09-29T19:01:05.985Z,78.00
2017-09-29T19:03:38.262Z,78.00
2017-09-29T19:06:11.399Z,78.20
2017-09-29T19:08:43.877Z,78.10
2017-09-29T19:11:16.534Z,77.80
2017-09-29T19:13:48.840Z,78.00
2017-09-29T19:16:21.459Z,77.70
2017-09-29T19:18:53.864Z,77.50
2017-09-29T19:21:26.274Z,77.10
2017-09-29T19:23:58.737Z,77.30
2017-09-29T19:26:31.809Z,77.50
2017-09-29T19:29:04.245Z,77.10
2017-09-29T19:31:36.519Z,77.60
2017-09-29T19:34:08.958Z,77.20
2017-09-29T19:36:41.242Z,76.90
2017-09-29T19:39:13.689Z,77.50
2017-09-29T19:41:46.206Z,76.40
2017-09-29T19:44:18.639Z,77.10
2017-09-29T19:46:50.952Z,76.90
2017-09-29T19:49:23.250Z,77.00
2017-09-29T19:51:55.728Z,77.00
2017-09-29T19:54:28.034Z,77.30
2017-09-29T19:57:00.520Z,77.50
2017-09-29T19:59:32.720Z,77.30
2017-09-29T20:02:05.926Z,77.40
2017-09-29T20:04:39.095Z,77.70
2017-09-29T20:07:11.558Z,77.60
2017-09-29T20:09:44.000Z,77.80
2017-09-29T20:12:16.260Z,77.80
2017-09-29T20:14:49.183Z,77.90
2017-09-29T20:17:21.851Z,77.80
2017-09-29T20:19:54.145Z,77.80
2017-09-29T20:22:26.434Z,78.30
2017-09-29T20:24:58.788Z,78.10
2017-09-29T20:27:31.033Z,77.90
2017-09-29T20:30:03.677Z,78.10
2017-09-29T20:32:36.117Z,78.20
2017-09-29T20:35:09.248Z,78.60
2017-09-29T20:37:41.541Z,78.60
2017-09-29T20:40:14.018Z,78.40
2017-09-29T20:42:47.132Z,78.30
2017-09-29T20:45:19.635Z,78.30
2017-09-29T20:47:51.854Z,78.60
2017-09-29T20:50:24.251Z,78.50
2017-09-29T20:52:57.192Z,79.00
2017-09-29T20:55:29.682Z,79.00
2017-09-29T20:58:02.021Z,78.60
2017-09-29T21:00:34.315Z,78.80
2017-09-29T21:03:06.597Z,79.40
2017-09-29T21:05:38.797Z,79.50
2017-09-29T21:08:11.077Z,79.30
2017-09-29T21:10:43.270Z,79.20
2017-09-29T21:13:15.400Z,79.90
2017-09-29T21:15:47.716Z,79.90
2017-09-29T21:18:19.962Z,79.80
2017-09-29T21:20:52.438Z,80.00
2017-09-29T21:23:24.724Z,80.00
2017-09-29T21:25:57.192Z,80.40
2017-09-29T21:28:29.411Z,80.40
2017-09-29T21:31:01.868Z,80.80
2017-09-29T21:33:34.875Z,81.00
2017-09-29T21:36:07.457Z,81.00
2017-09-29T21:38:40.503Z,80.70
2017-09-29T21:41:12.958Z,80.70
2017-09-29T21:43:45.240Z,81.30
2017-09-29T21:46:17.665Z,81.60
2017-09-29T21:48:56.972Z,81.40
2017-09-29T21:51:29.364Z,81.30
2017-09-29T21:54:01.938Z,82.10
2017-09-29T21:56:34.516Z,82.00
2017-09-29T21:59:06.816Z,82.20
2017-09-29T22:01:39.274Z,82.40
2017-09-29T22:04:11.603Z,82.40
2017-09-29T22:06:43.778Z,82.30
2017-09-29T22:09:16.933Z,83.20
2017-09-29T22:11:49.222Z,83.10
2017-09-29T22:14:21.557Z,83.00
2017-09-29T22:16:53.950Z,83.40
2017-09-29T22:19:26.512Z,83.40
2017-09-29T22:21:59.279Z,83.30
2017-09-29T22:24:31.584Z,83.60
2017-09-29T22:27:04.130Z,83.60
2017-09-29T22:29:36.825Z,83.50
2017-09-29T22:32:09.076Z,83.70
2017-09-29T22:34:41.443Z,84.00
2017-09-29T22:37:13.705Z,84.30
2017-09-29T22:39:46.167Z,84.40
2017-09-29T22:42:18.532Z,85.00
2017-09-29T22:44:51.878Z,85.20
2017-09-29T22:47:24.141Z,85.20
2017-09-29T22:49:57.297Z,85.30
2017-09-29T22:52:29.729Z,85.30
2017-09-29T22:55:02.167Z,85.40
2017-09-29T22:57:34.736Z,85.90
2017-09-29T23:00:07.296Z,86.20
2017-09-29T23:02:39.692Z,86.10
2017-09-29T23:05:12.185Z,86.50
2017-09-29T23:07:44.433Z,87.30
2017-09-29T23:10:16.697Z,87.10
2017-09-29T23:12:49.844Z,87.70
2017-09-29T23:15:22.317Z,87.50
2017-09-29T23:17:54.796Z,87.10
2017-09-29T23:20:26.973Z,87.80
2017-09-29T23:22:59.457Z,88.30
2017-09-29T23:25:31.854Z,88.60
2017-09-29T23:28:04.257Z,88.50
2017-09-29T23:30:36.604Z,89.00
2017-09-29T23:33:09.767Z,89.20
2017-09-29T23:35:42.045Z,89.40
2017-09-29T23:38:14.741Z,89.70
2017-09-29T23:40:47.181Z,90.20
2017-09-29T23:43:19.460Z,90.40
2017-09-29T23:45:51.821Z,90.10
2017-09-29T23:48:24.954Z,90.70
2017-09-29T23:50:58.151Z,91.90
2017-09-29T23:53:31.286Z,91.40
2017-09-29T23:56:03.567Z,91.40
2017-09-29T23:58:35.998Z,91.30
